TimeEST,TemperatureF,Dew PointF,Humidity,Sea Level PressureIn,VisibilityMPH,Wind Direction,Wind SpeedMPH,Gust SpeedMPH,PrecipitationIn,Events,Conditions,WindDirDegrees,DateUTC
12:54 AM,45.0,45.0,100,29.97,0.5,ESE,4.6,-,0.01,Fog-Rain,Light Rain,110,2013-01-14 05:54:00
1:09 AM,44.6,44.6,100,29.97,0.5,East,4.6,-,0.01,Fog-Rain,Light Rain,100,2013-01-14 06:09:00
1:30 AM,44.6,44.6,100,29.97,0.5,Calm,Calm,-,0.04,Fog-Rain,Light Rain,0,2013-01-14 06:30:00
1:36 AM,44.6,44.6,100,29.96,0.5,ESE,5.8,-,0.04,Fog-Rain,Rain,110,2013-01-14 06:36:00
1:54 AM,45.0,45.0,100,29.96,1.0,Variable,3.5,-,0.07,Rain,Light Rain,0,2013-01-14 06:54:00
2:00 AM,46.4,46.4,100,29.96,3.0,East,4.6,-,0.00,Rain,Light Rain,80,2013-01-14 07:00:00
2:11 AM,44.6,44.6,100,29.94,4.0,SE,4.6,-,0.00,Rain,Light Rain,130,2013-01-14 07:11:00
2:36 AM,48.2,46.4,93,29.91,10.0,ENE,12.7,19.6,0.01,,Overcast,60,2013-01-14 07:36:00
2:54 AM,46.9,46.0,97,29.97,10.0,West,6.9,-,0.01,,Overcast,260,2013-01-14 07:54:00
3:54 AM,45.0,45.0,100,29.95,6.0,Calm,Calm,-,N/A,,Overcast,0,2013-01-14 08:54:00
4:17 AM,46.4,44.6,93,29.94,9.0,West,3.5,-,N/A,,Overcast,260,2013-01-14 09:17:00
4:36 AM,44.6,44.6,100,29.94,5.0,West,6.9,-,N/A,,Overcast,270,2013-01-14 09:36:00
4:54 AM,44.6,44.6,100,29.93,4.0,West,4.6,-,N/A,,Overcast,270,2013-01-14 09:54:00
5:16 AM,42.8,42.8,100,29.96,3.0,West,9.2,-,N/A,,Overcast,270,2013-01-14 10:16:00
5:23 AM,42.8,42.8,100,29.97,2.0,West,10.4,-,N/A,,Overcast,270,2013-01-14 10:23:00
5:30 AM,42.8,42.8,100,29.98,1.5,West,15.0,-,N/A,,Overcast,270,2013-01-14 10:30:00
5:45 AM,42.8,42.8,100,30.01,3.0,West,11.5,-,N/A,,Overcast,270,2013-01-14 10:45:00
5:54 AM,44.1,43.0,96,30.01,7.0,WNW,10.4,-,N/A,,Overcast,290,2013-01-14 10:54:00
6:02 AM,44.6,44.6,100,30.01,8.0,WNW,11.5,-,N/A,,Overcast,290,2013-01-14 11:02:00
6:14 AM,44.6,44.6,100,30.02,8.0,WNW,9.2,-,N/A,,Overcast,290,2013-01-14 11:14:00
6:32 AM,44.6,42.8,93,30.03,10.0,West,8.1,-,N/A,,Overcast,260,2013-01-14 11:32:00
6:54 AM,44.1,43.0,96,30.06,10.0,West,10.4,-,N/A,,Overcast,280,2013-01-14 11:54:00
7:54 AM,44.1,42.1,93,30.10,10.0,West,9.2,-,N/A,,Mostly Cloudy,260,2013-01-14 12:54:00
8:20 AM,44.6,42.8,93,30.12,10.0,WNW,12.7,-,N/A,,Overcast,290,2013-01-14 13:20:00
8:54 AM,45.0,42.1,90,30.15,10.0,WNW,11.5,-,N/A,,Overcast,290,2013-01-14 13:54:00
9:36 AM,44.6,39.2,81,30.17,10.0,WNW,12.7,-,N/A,,Scattered Clouds,290,2013-01-14 14:36:00
9:47 AM,44.6,39.2,81,30.17,10.0,WNW,13.8,-,N/A,,Mostly Cloudy,290,2013-01-14 14:47:00
9:54 AM,45.0,37.9,76,30.19,10.0,WNW,15.0,21.9,N/A,,Mostly Cloudy,290,2013-01-14 14:54:00
10:01 AM,44.6,37.4,76,30.18,10.0,WNW,15.0,21.9,N/A,,Partly Cloudy,290,2013-01-14 15:01:00
10:54 AM,46.9,35.1,63,30.22,10.0,WNW,9.2,-,N/A,,Clear,290,2013-01-14 15:54:00
11:54 AM,48.0,33.1,56,30.20,10.0,WNW,13.8,19.6,N/A,,Clear,290,2013-01-14 16:54:00
12:54 PM,46.9,30.0,52,30.19,10.0,West,12.7,-,N/A,,Clear,260,2013-01-14 17:54:00
1:54 PM,46.9,27.0,46,30.20,10.0,West,9.2,-,N/A,,Clear,280,2013-01-14 18:54:00
2:54 PM,48.0,25.0,41,30.20,10.0,NW,9.2,-,N/A,,Clear,310,2013-01-14 19:54:00
3:54 PM,46.0,25.0,44,30.20,10.0,North,5.8,-,N/A,,Clear,10,2013-01-14 20:54:00
4:54 PM,44.6,24.8,46,30.21,10.0,NNW,5.8,-,N/A,,Clear,330,2013-01-14 21:54:00
5:54 PM,43.0,21.9,43,30.25,10.0,North,5.8,-,N/A,,Clear,350,2013-01-14 22:54:00
6:54 PM,41.0,21.0,45,30.30,10.0,Variable,3.5,-,N/A,,Clear,0,2013-01-14 23:54:00
7:54 PM,39.9,21.9,49,30.30,10.0,NNW,6.9,-,N/A,,Clear,340,2013-01-15 00:54:00
8:54 PM,37.9,23.0,55,30.33,10.0,NNW,9.2,-,N/A,,Clear,330,2013-01-15 01:54:00
9:54 PM,37.0,23.0,57,30.33,10.0,NW,3.5,-,N/A,,Clear,310,2013-01-15 02:54:00
10:54 PM,35.6,24.8,65,30.29,10.0,Calm,Calm,-,N/A,,Scattered Clouds,0,2013-01-15 03:54:00
11:54 PM,36.0,23.0,59,30.32,10.0,Calm,Calm,-,N/A,,Scattered Clouds,0,2013-01-15 04:54:00